Historyczne dane pomiarowe

Dodano dane terminowe – wersja testowa.

Dane z okresu 1951-2019

Wersja bazy: 1.34 [2019-03-16, lista zmian], aktualizacja planowana na 2019-04-15

Dane meteo z obszaru Polski uzyskane na podstawie danych udostępnionych przez Instytut Meteorologii i Gospodarki Wodnej – Państwowy Instytut Badawczy.

 

Wybierz Datę:    

       

TemperaturaWilgotnośćWiatrCiśnienieOpadyŚniegCzas trwania zjawisk
 Stacja t tx tn tng RH VA  wxwx mslp ppp RRR   cm mm wxwxwxwxwxwxwx
1962-02-25 -5.2 -3.3-10.5--- 8.0 7.0---- 3.7-- 16---------
1962-02-26 -3.3 -1.9 -4.4--- 8.0 3.3---- 0.0-- 16---------
1962-02-27 -7.2 -3.3 -9.8--- 8.0 1.7---- 0.0-- 16---------
1962-02-28 -6.9 -4.8-12.6--- 8.0 1.3---- 0.0-- 16---------
1962-03-01 -4.2 -3.5 -6.0--- 8.0 1.7---- 0.0-- 16---------
1962-03-02 -5.0 -2.9 -7.8--- 8.0 1.3---- 0.0-- 15---------
1962-03-03 -2.2 2.5 -5.4--- 5.0 0.7---- 0.0-- 14---------
1962-03-04 2.2 6.6 -4.0--- 7.3 1.3---- 1.8-- 12---------
1962-03-05 2.2 3.1 0.8--- 8.0 1.0---- 3.4-- 10---------
1962-03-06 1.6 6.7 -0.4--- 8.0 4.0---- 0.3-- 6---------
1962-03-07 -1.6 0.2 -2.7--- 7.3 6.7---- 0.0-- 6---------
1962-03-08 -2.2 1.6 -6.0--- 1.7 2.0---- 0.0-- 6---------
1962-03-09 -2.7 -0.9 -4.6--- 5.3 3.7---- 0.0-- 6---------
1962-03-10 -1.6 0.9 -6.5--- 3.3 7.0---- 0.0-- 6---------
1962-03-11 2.1 7.9 -1.6--- 3.0 1.3---- 0.0------------
1962-03-12 0.8 2.6 -0.1--- 8.0 1.3---- 8.3------------
1962-03-13 -3.5 0.2 -5.5--- 8.0 7.0---- 3.2-- 7---------
1962-03-14 -7.9 -2.3-10.6--- 1.7 2.0---- 0.0-- 10---------
1962-03-15 -6.4 -4.5-11.8--- 8.0 1.3---- 0.0-- 8---------
1962-03-16 -6.8 -5.2 -7.8--- 8.0 13.3---- 10.8-- 8---------
1962-03-17 -5.3 -4.2 -8.0--- 8.0 12.0---- 10.7-- 13---------
1962-03-18 -6.7 -1.3 -9.5--- 2.7 8.0---- 4.5-- 19---------
1962-03-19 -6.2 1.1-16.4--- 3.0 0.7---- 0.0-- 20---------
1962-03-20 -6.1 -0.1 -9.2--- 3.3 0.7---- 0.0-- 17---------
1962-03-21 -8.9 -1.6-18.0--- 0.3 1.3---- 0.0-- 17---------
1962-03-22 -4.6 -2.3-11.8--- 8.0 2.3---- 1.9-- 15---------
1962-03-23 -0.5 1.6 -3.5--- 8.0 2.3---- 8.1-- 16---------
1962-03-24 -2.2 0.8 -4.1--- 7.0 1.0---- 0.8-- 20---------
1962-03-25 -6.8 2.6-14.8--- 1.7 0.0---- 0.0-- 19---------
1962-03-26 -9.7 -0.6-19.0--- 0.3 0.0---- 0.0-- 17---------
214.8 ms

 

Źródłem pochodzenia danych jest Instytut Meteorologii i Gospodarki Wodnej – Państwowy Instytut Badawczy. Dane Instytutu Meteorologii i Gospodarki Wodnej – Państwowego Instytutu Badawczego zostały przetworzone.

Dane źródłowe można odnaleźć na stronie https://dane.imgw.pl